sensor_id;sensor_type;location;lat;lon;timestamp;P1;durP1;ratioP1;P2;durP2;ratioP2
21833;SDS011;11079;51.092;3.458;2023-11-22T00:00:17;27.45;;;15.18;;
21833;SDS011;11079;51.092;3.458;2023-11-22T00:02:46;26.58;;;16.02;;
21833;SDS011;11079;51.092;3.458;2023-11-22T00:05:15;28.38;;;15.25;;
21833;SDS011;11079;51.092;3.458;2023-11-22T00:07:43;25.65;;;14.70;;
21833;SDS011;11079;51.092;3.458;2023-11-22T00:10:11;25.73;;;15.00;;
21833;SDS011;11079;51.092;3.458;2023-11-22T00:12:37;27.50;;;14.85;;
21833;SDS011;11079;51.092;3.458;2023-11-22T00:15:05;25.15;;;14.65;;
21833;SDS011;11079;51.092;3.458;2023-11-22T00:17:32;29.63;;;14.73;;
21833;SDS011;11079;51.092;3.458;2023-11-22T00:19:59;29.65;;;16.20;;
21833;SDS011;11079;51.092;3.458;2023-11-22T00:22:34;27.30;;;14.82;;
21833;SDS011;11079;51.092;3.458;2023-11-22T00:25:02;28.33;;;15.73;;
21833;SDS011;11079;51.092;3.458;2023-11-22T00:27:28;32.50;;;16.40;;
21833;SDS011;11079;51.092;3.458;2023-11-22T00:29:56;29.15;;;15.68;;
21833;SDS011;11079;51.092;3.458;2023-11-22T00:32:22;28.08;;;15.68;;
21833;SDS011;11079;51.092;3.458;2023-11-22T00:34:50;30.17;;;15.40;;
21833;SDS011;11079;51.092;3.458;2023-11-22T00:37:25;29.85;;;14.43;;
21833;SDS011;11079;51.092;3.458;2023-11-22T00:39:50;25.92;;;14.15;;
21833;SDS011;11079;51.092;3.458;2023-11-22T00:42:19;26.27;;;14.70;;
21833;SDS011;11079;51.092;3.458;2023-11-22T00:44:45;28.55;;;14.93;;
21833;SDS011;11079;51.092;3.458;2023-11-22T00:47:13;28.58;;;15.00;;
21833;SDS011;11079;51.092;3.458;2023-11-22T00:49:42;27.75;;;14.25;;
21833;SDS011;11079;51.092;3.458;2023-11-22T00:52:10;27.58;;;15.07;;
21833;SDS011;11079;51.092;3.458;2023-11-22T00:54:38;32.80;;;15.40;;
21833;SDS011;11079;51.092;3.458;2023-11-22T00:57:16;31.48;;;15.23;;
21833;SDS011;11079;51.092;3.458;2023-11-22T00:59:44;28.20;;;15.90;;
21833;SDS011;11079;51.092;3.458;2023-11-22T01:02:13;29.52;;;16.02;;
21833;SDS011;11079;51.092;3.458;2023-11-22T01:05:01;28.42;;;14.63;;
21833;SDS011;11079;51.092;3.458;2023-11-22T01:07:48;28.45;;;14.88;;
21833;SDS011;11079;51.092;3.458;2023-11-22T01:10:44;28.10;;;15.45;;
21833;SDS011;11079;51.092;3.458;2023-11-22T01:13:12;36.25;;;15.55;;
21833;SDS011;11079;51.092;3.458;2023-11-22T01:15:41;31.17;;;15.35;;
21833;SDS011;11079;51.092;3.458;2023-11-22T01:18:17;31.40;;;14.98;;
21833;SDS011;11079;51.092;3.458;2023-11-22T01:20:55;32.38;;;15.30;;
21833;SDS011;11079;51.092;3.458;2023-11-22T01:23:28;30.88;;;15.57;;
21833;SDS011;11079;51.092;3.458;2023-11-22T01:25:53;33.22;;;15.63;;
21833;SDS011;11079;51.092;3.458;2023-11-22T01:28:21;32.53;;;16.35;;
21833;SDS011;11079;51.092;3.458;2023-11-22T01:30:53;32.17;;;16.02;;
21833;SDS011;11079;51.092;3.458;2023-11-22T01:33:24;32.17;;;16.52;;
21833;SDS011;11079;51.092;3.458;2023-11-22T01:35:52;32.25;;;15.27;;
21833;SDS011;11079;51.092;3.458;2023-11-22T01:38:23;30.75;;;14.88;;
21833;SDS011;11079;51.092;3.458;2023-11-22T01:41:06;27.83;;;15.43;;
21833;SDS011;11079;51.092;3.458;2023-11-22T01:43:52;32.08;;;15.90;;
21833;SDS011;11079;51.092;3.458;2023-11-22T01:46:23;32.53;;;15.30;;
21833;SDS011;11079;51.092;3.458;2023-11-22T01:48:52;31.23;;;16.45;;
21833;SDS011;11079;51.092;3.458;2023-11-22T01:51:22;32.65;;;16.73;;
21833;SDS011;11079;51.092;3.458;2023-11-22T01:53:53;29.02;;;15.45;;
21833;SDS011;11079;51.092;3.458;2023-11-22T02:03:41;33.38;;;15.77;;
21833;SDS011;11079;51.092;3.458;2023-11-22T02:06:14;35.17;;;16.58;;
21833;SDS011;11079;51.092;3.458;2023-11-22T02:08:46;44.22;;;19.10;;
21833;SDS011;11079;51.092;3.458;2023-11-22T02:11:23;38.33;;;17.70;;
21833;SDS011;11079;51.092;3.458;2023-11-22T02:13:54;36.85;;;16.95;;
21833;SDS011;11079;51.092;3.458;2023-11-22T02:16:27;33.88;;;16.15;;
21833;SDS011;11079;51.092;3.458;2023-11-22T02:18:53;32.50;;;15.68;;
21833;SDS011;11079;51.092;3.458;2023-11-22T02:21:21;33.75;;;17.65;;
21833;SDS011;11079;51.092;3.458;2023-11-22T02:23:51;30.25;;;15.77;;
21833;SDS011;11079;51.092;3.458;2023-11-22T02:26:33;37.45;;;17.48;;
21833;SDS011;11079;51.092;3.458;2023-11-22T02:29:17;38.50;;;17.40;;
21833;SDS011;11079;51.092;3.458;2023-11-22T02:31:43;35.25;;;17.13;;
21833;SDS011;11079;51.092;3.458;2023-11-22T02:34:11;42.38;;;17.48;;
21833;SDS011;11079;51.092;3.458;2023-11-22T02:36:55;37.05;;;17.25;;
21833;SDS011;11079;51.092;3.458;2023-11-22T02:39:24;36.85;;;17.77;;
21833;SDS011;11079;51.092;3.458;2023-11-22T02:41:58;41.90;;;19.13;;
21833;SDS011;11079;51.092;3.458;2023-11-22T02:44:24;39.53;;;18.42;;
21833;SDS011;11079;51.092;3.458;2023-11-22T02:46:55;36.83;;;17.00;;
21833;SDS011;11079;51.092;3.458;2023-11-22T02:49:30;43.55;;;18.73;;
21833;SDS011;11079;51.092;3.458;2023-11-22T02:51:59;42.22;;;18.38;;
21833;SDS011;11079;51.092;3.458;2023-11-22T02:54:28;39.47;;;19.02;;
21833;SDS011;11079;51.092;3.458;2023-11-22T02:56:56;43.72;;;18.88;;
21833;SDS011;11079;51.092;3.458;2023-11-22T02:59:22;40.10;;;17.50;;
21833;SDS011;11079;51.092;3.458;2023-11-22T03:02:08;36.50;;;17.30;;
21833;SDS011;11079;51.092;3.458;2023-11-22T03:04:39;41.47;;;17.77;;
21833;SDS011;11079;51.092;3.458;2023-11-22T03:07:10;41.13;;;18.88;;
21833;SDS011;11079;51.092;3.458;2023-11-22T03:09:39;41.72;;;18.92;;
21833;SDS011;11079;51.092;3.458;2023-11-22T03:12:08;36.03;;;16.98;;
21833;SDS011;11079;51.092;3.458;2023-11-22T03:14:34;37.75;;;18.00;;
21833;SDS011;11079;51.092;3.458;2023-11-22T03:17:04;39.55;;;18.98;;
21833;SDS011;11079;51.092;3.458;2023-11-22T03:19:32;35.30;;;17.58;;
21833;SDS011;11079;51.092;3.458;2023-11-22T03:22:10;34.72;;;17.48;;
21833;SDS011;11079;51.092;3.458;2023-11-22T03:24:45;38.67;;;17.42;;
21833;SDS011;11079;51.092;3.458;2023-11-22T03:27:19;41.33;;;20.05;;
21833;SDS011;11079;51.092;3.458;2023-11-22T03:29:50;41.97;;;18.90;;
21833;SDS011;11079;51.092;3.458;2023-11-22T03:32:23;38.60;;;18.42;;
21833;SDS011;11079;51.092;3.458;2023-11-22T03:35:04;40.10;;;18.55;;
21833;SDS011;11079;51.092;3.458;2023-11-22T03:37:34;47.20;;;20.05;;
21833;SDS011;11079;51.092;3.458;2023-11-22T03:40:04;34.80;;;17.27;;
21833;SDS011;11079;51.092;3.458;2023-11-22T03:42:41;38.17;;;18.20;;
21833;SDS011;11079;51.092;3.458;2023-11-22T03:45:22;33.58;;;17.83;;
21833;SDS011;11079;51.092;3.458;2023-11-22T03:47:53;41.65;;;20.27;;
21833;SDS011;11079;51.092;3.458;2023-11-22T03:50:21;36.35;;;17.10;;
21833;SDS011;11079;51.092;3.458;2023-11-22T03:52:57;34.25;;;17.08;;
21833;SDS011;11079;51.092;3.458;2023-11-22T03:55:32;35.38;;;18.23;;
21833;SDS011;11079;51.092;3.458;2023-11-22T03:58:06;35.88;;;17.25;;
21833;SDS011;11079;51.092;3.458;2023-11-22T04:00:35;36.88;;;18.48;;
21833;SDS011;11079;51.092;3.458;2023-11-22T04:03:12;48.45;;;21.70;;
21833;SDS011;11079;51.092;3.458;2023-11-22T04:05:44;48.05;;;22.02;;
21833;SDS011;11079;51.092;3.458;2023-11-22T04:08:09;46.80;;;20.95;;
21833;SDS011;11079;51.092;3.458;2023-11-22T04:10:36;46.17;;;20.55;;
21833;SDS011;11079;51.092;3.458;2023-11-22T04:13:12;45.80;;;21.08;;
21833;SDS011;11079;51.092;3.458;2023-11-22T04:15:40;46.10;;;21.58;;
21833;SDS011;11079;51.092;3.458;2023-11-22T04:21:10;46.45;;;20.92;;
21833;SDS011;11079;51.092;3.458;2023-11-22T04:23:51;37.42;;;19.73;;
21833;SDS011;11079;51.092;3.458;2023-11-22T04:26:24;42.55;;;20.33;;
21833;SDS011;11079;51.092;3.458;2023-11-22T04:28:53;45.33;;;19.60;;
21833;SDS011;11079;51.092;3.458;2023-11-22T04:31:24;51.40;;;20.85;;
21833;SDS011;11079;51.092;3.458;2023-11-22T04:34:14;41.15;;;18.77;;
21833;SDS011;11079;51.092;3.458;2023-11-22T04:36:57;39.25;;;19.45;;
21833;SDS011;11079;51.092;3.458;2023-11-22T04:39:27;37.40;;;18.95;;
21833;SDS011;11079;51.092;3.458;2023-11-22T04:42:23;38.45;;;19.02;;
21833;SDS011;11079;51.092;3.458;2023-11-22T04:45:27;39.25;;;18.83;;
21833;SDS011;11079;51.092;3.458;2023-11-22T04:48:36;39.13;;;18.88;;
21833;SDS011;11079;51.092;3.458;2023-11-22T05:00:51;33.80;;;17.02;;
21833;SDS011;11079;51.092;3.458;2023-11-22T05:03:40;38.40;;;19.48;;
21833;SDS011;11079;51.092;3.458;2023-11-22T05:06:27;39.25;;;19.80;;
21833;SDS011;11079;51.092;3.458;2023-11-22T05:09:27;39.75;;;20.33;;
21833;SDS011;11079;51.092;3.458;2023-11-22T05:12:07;34.97;;;18.08;;
21833;SDS011;11079;51.092;3.458;2023-11-22T05:17:48;33.97;;;17.55;;
21833;SDS011;11079;51.092;3.458;2023-11-22T05:20:34;39.35;;;18.30;;
21833;SDS011;11079;51.092;3.458;2023-11-22T05:23:18;35.83;;;19.88;;
21833;SDS011;11079;51.092;3.458;2023-11-22T05:26:23;35.75;;;18.45;;
21833;SDS011;11079;51.092;3.458;2023-11-22T05:29:29;34.50;;;18.23;;
21833;SDS011;11079;51.092;3.458;2023-11-22T05:32:23;36.50;;;19.42;;
21833;SDS011;11079;51.092;3.458;2023-11-22T05:38:01;41.45;;;18.90;;
21833;SDS011;11079;51.092;3.458;2023-11-22T05:47:01;37.03;;;19.55;;
21833;SDS011;11079;51.092;3.458;2023-11-22T05:49:57;39.67;;;18.05;;
21833;SDS011;11079;51.092;3.458;2023-11-22T05:52:36;46.60;;;20.35;;
21833;SDS011;11079;51.092;3.458;2023-11-22T05:55:07;45.30;;;20.88;;
21833;SDS011;11079;51.092;3.458;2023-11-22T05:57:56;45.00;;;21.02;;
21833;SDS011;11079;51.092;3.458;2023-11-22T06:00:45;45.65;;;20.45;;
21833;SDS011;11079;51.092;3.458;2023-11-22T06:03:14;51.65;;;21.58;;
21833;SDS011;11079;51.092;3.458;2023-11-22T06:05:42;44.75;;;21.52;;
21833;SDS011;11079;51.092;3.458;2023-11-22T06:08:38;45.55;;;21.67;;
21833;SDS011;11079;51.092;3.458;2023-11-22T06:11:17;39.15;;;19.42;;
21833;SDS011;11079;51.092;3.458;2023-11-22T06:13:59;43.15;;;19.08;;
21833;SDS011;11079;51.092;3.458;2023-11-22T06:16:30;40.70;;;18.60;;
21833;SDS011;11079;51.092;3.458;2023-11-22T06:36:25;42.47;;;19.65;;
21833;SDS011;11079;51.092;3.458;2023-11-22T07:14:36;41.45;;;18.40;;
21833;SDS011;11079;51.092;3.458;2023-11-22T07:24:11;38.83;;;19.48;;
21833;SDS011;11079;51.092;3.458;2023-11-22T07:30:46;38.30;;;20.02;;
21833;SDS011;11079;51.092;3.458;2023-11-22T07:40:36;44.92;;;20.38;;
21833;SDS011;11079;51.092;3.458;2023-11-22T07:43:49;41.22;;;19.17;;
21833;SDS011;11079;51.092;3.458;2023-11-22T08:22:10;31.67;;;17.35;;
21833;SDS011;11079;51.092;3.458;2023-11-22T09:48:54;20.55;;;14.60;;
21833;SDS011;11079;51.092;3.458;2023-11-22T09:59:48;21.98;;;15.25;;
21833;SDS011;11079;51.092;3.458;2023-11-22T10:03:13;22.98;;;15.48;;
21833;SDS011;11079;51.092;3.458;2023-11-22T10:23:10;25.95;;;16.63;;
21833;SDS011;11079;51.092;3.458;2023-11-22T10:29:35;24.15;;;16.42;;
21833;SDS011;11079;51.092;3.458;2023-11-22T10:32:01;22.55;;;16.02;;
21833;SDS011;11079;51.092;3.458;2023-11-22T10:34:32;24.73;;;16.63;;
21833;SDS011;11079;51.092;3.458;2023-11-22T10:37:01;25.58;;;17.23;;
21833;SDS011;11079;51.092;3.458;2023-11-22T10:39:29;24.13;;;16.88;;
21833;SDS011;11079;51.092;3.458;2023-11-22T10:41:55;22.33;;;15.55;;
21833;SDS011;11079;51.092;3.458;2023-11-22T10:44:25;22.23;;;15.43;;
21833;SDS011;11079;51.092;3.458;2023-11-22T10:54:37;19.98;;;14.30;;
21833;SDS011;11079;51.092;3.458;2023-11-22T10:57:06;23.15;;;16.08;;
21833;SDS011;11079;51.092;3.458;2023-11-22T10:59:40;22.58;;;15.65;;
21833;SDS011;11079;51.092;3.458;2023-11-22T11:02:10;22.83;;;16.35;;
21833;SDS011;11079;51.092;3.458;2023-11-22T11:04:47;20.50;;;14.95;;
21833;SDS011;11079;51.092;3.458;2023-11-22T11:07:24;21.60;;;15.35;;
21833;SDS011;11079;51.092;3.458;2023-11-22T11:09:53;22.63;;;15.15;;
21833;SDS011;11079;51.092;3.458;2023-11-22T11:12:29;20.73;;;15.18;;
21833;SDS011;11079;51.092;3.458;2023-11-22T11:15:05;22.55;;;14.75;;
21833;SDS011;11079;51.092;3.458;2023-11-22T11:17:33;26.35;;;17.08;;
21833;SDS011;11079;51.092;3.458;2023-11-22T11:20:00;22.50;;;16.35;;
21833;SDS011;11079;51.092;3.458;2023-11-22T11:22:29;24.50;;;16.80;;
21833;SDS011;11079;51.092;3.458;2023-11-22T11:25:02;23.60;;;16.90;;
21833;SDS011;11079;51.092;3.458;2023-11-22T11:27:34;26.58;;;17.77;;
21833;SDS011;11079;51.092;3.458;2023-11-22T11:30:01;24.80;;;17.80;;
21833;SDS011;11079;51.092;3.458;2023-11-22T11:33:06;26.42;;;17.67;;
21833;SDS011;11079;51.092;3.458;2023-11-22T11:35:39;25.98;;;17.92;;
21833;SDS011;11079;51.092;3.458;2023-11-22T11:38:16;25.30;;;17.55;;
21833;SDS011;11079;51.092;3.458;2023-11-22T11:40:51;26.80;;;17.95;;
21833;SDS011;11079;51.092;3.458;2023-11-22T11:46:12;28.60;;;18.65;;
21833;SDS011;11079;51.092;3.458;2023-11-22T11:48:44;33.85;;;18.85;;
21833;SDS011;11079;51.092;3.458;2023-11-22T11:51:16;26.15;;;17.75;;
21833;SDS011;11079;51.092;3.458;2023-11-22T11:53:49;27.20;;;17.67;;
21833;SDS011;11079;51.092;3.458;2023-11-22T11:56:15;24.63;;;17.70;;
21833;SDS011;11079;51.092;3.458;2023-11-22T11:58:42;29.73;;;18.85;;
21833;SDS011;11079;51.092;3.458;2023-11-22T12:01:11;27.00;;;18.48;;
21833;SDS011;11079;51.092;3.458;2023-11-22T12:03:38;29.08;;;18.85;;
21833;SDS011;11079;51.092;3.458;2023-11-22T12:06:04;25.88;;;19.75;;
21833;SDS011;11079;51.092;3.458;2023-11-22T12:08:31;25.77;;;18.42;;
21833;SDS011;11079;51.092;3.458;2023-11-22T12:11:03;23.48;;;17.98;;
21833;SDS011;11079;51.092;3.458;2023-11-22T12:13:35;25.92;;;18.75;;
21833;SDS011;11079;51.092;3.458;2023-11-22T12:16:08;26.77;;;17.58;;
21833;SDS011;11079;51.092;3.458;2023-11-22T12:18:40;29.75;;;18.27;;
21833;SDS011;11079;51.092;3.458;2023-11-22T12:21:08;25.70;;;17.35;;
21833;SDS011;11079;51.092;3.458;2023-11-22T12:23:41;24.50;;;16.35;;
21833;SDS011;11079;51.092;3.458;2023-11-22T12:26:16;23.30;;;16.02;;
21833;SDS011;11079;51.092;3.458;2023-11-22T12:29:02;26.00;;;17.02;;
21833;SDS011;11079;51.092;3.458;2023-11-22T12:31:28;23.48;;;17.30;;
21833;SDS011;11079;51.092;3.458;2023-11-22T12:33:59;24.92;;;17.70;;
21833;SDS011;11079;51.092;3.458;2023-11-22T12:36:25;28.83;;;17.35;;
21833;SDS011;11079;51.092;3.458;2023-11-22T12:38:50;27.48;;;16.45;;
21833;SDS011;11079;51.092;3.458;2023-11-22T12:41:16;25.42;;;16.65;;
21833;SDS011;11079;51.092;3.458;2023-11-22T12:43:42;34.35;;;18.85;;
21833;SDS011;11079;51.092;3.458;2023-11-22T12:46:08;24.13;;;15.63;;
21833;SDS011;11079;51.092;3.458;2023-11-22T12:48:41;28.70;;;17.08;;
21833;SDS011;11079;51.092;3.458;2023-11-22T12:51:15;24.40;;;15.75;;
21833;SDS011;11079;51.092;3.458;2023-11-22T12:53:51;29.80;;;17.23;;
21833;SDS011;11079;51.092;3.458;2023-11-22T12:56:17;24.27;;;16.27;;
21833;SDS011;11079;51.092;3.458;2023-11-22T12:58:45;24.35;;;16.60;;
21833;SDS011;11079;51.092;3.458;2023-11-22T13:01:14;29.13;;;16.88;;
21833;SDS011;11079;51.092;3.458;2023-11-22T13:03:50;26.10;;;16.67;;
21833;SDS011;11079;51.092;3.458;2023-11-22T13:06:16;23.20;;;15.15;;
21833;SDS011;11079;51.092;3.458;2023-11-22T13:08:44;26.60;;;15.32;;
21833;SDS011;11079;51.092;3.458;2023-11-22T13:11:09;26.25;;;15.90;;
21833;SDS011;11079;51.092;3.458;2023-11-22T13:13:38;23.38;;;14.52;;
21833;SDS011;11079;51.092;3.458;2023-11-22T13:16:03;25.88;;;14.57;;
21833;SDS011;11079;51.092;3.458;2023-11-22T13:18:30;23.50;;;14.55;;
21833;SDS011;11079;51.092;3.458;2023-11-22T13:20:56;24.63;;;14.90;;
21833;SDS011;11079;51.092;3.458;2023-11-22T13:23:21;23.67;;;16.00;;
21833;SDS011;11079;51.092;3.458;2023-11-22T13:25:48;23.85;;;15.02;;
21833;SDS011;11079;51.092;3.458;2023-11-22T13:28:22;22.63;;;14.25;;
21833;SDS011;11079;51.092;3.458;2023-11-22T13:30:50;24.40;;;14.77;;
21833;SDS011;11079;51.092;3.458;2023-11-22T13:33:16;23.77;;;15.00;;
21833;SDS011;11079;51.092;3.458;2023-11-22T13:35:42;27.63;;;15.65;;
21833;SDS011;11079;51.092;3.458;2023-11-22T13:38:09;24.50;;;14.32;;
21833;SDS011;11079;51.092;3.458;2023-11-22T13:40:37;25.27;;;14.20;;
21833;SDS011;11079;51.092;3.458;2023-11-22T13:43:05;20.40;;;13.07;;
21833;SDS011;11079;51.092;3.458;2023-11-22T13:45:31;23.73;;;14.07;;
21833;SDS011;11079;51.092;3.458;2023-11-22T13:47:58;22.63;;;13.82;;
21833;SDS011;11079;51.092;3.458;2023-11-22T13:50:37;30.98;;;15.68;;
21833;SDS011;11079;51.092;3.458;2023-11-22T13:53:13;23.20;;;14.85;;
21833;SDS011;11079;51.092;3.458;2023-11-22T13:55:39;23.25;;;15.18;;
21833;SDS011;11079;51.092;3.458;2023-11-22T13:58:23;19.80;;;12.82;;
21833;SDS011;11079;51.092;3.458;2023-11-22T14:00:48;24.08;;;14.10;;
21833;SDS011;11079;51.092;3.458;2023-11-22T14:03:23;21.40;;;13.25;;
21833;SDS011;11079;51.092;3.458;2023-11-22T14:05:53;23.77;;;14.35;;
21833;SDS011;11079;51.092;3.458;2023-11-22T14:08:32;22.25;;;13.18;;
21833;SDS011;11079;51.092;3.458;2023-11-22T14:11:02;22.00;;;13.38;;
21833;SDS011;11079;51.092;3.458;2023-11-22T14:13:37;23.38;;;13.82;;
21833;SDS011;11079;51.092;3.458;2023-11-22T14:19:38;19.40;;;12.73;;
21833;SDS011;11079;51.092;3.458;2023-11-22T14:22:05;19.83;;;13.20;;
21833;SDS011;11079;51.092;3.458;2023-11-22T14:24:32;21.38;;;13.52;;
21833;SDS011;11079;51.092;3.458;2023-11-22T14:27:02;22.23;;;13.18;;
21833;SDS011;11079;51.092;3.458;2023-11-22T14:29:28;24.10;;;14.20;;
21833;SDS011;11079;51.092;3.458;2023-11-22T14:31:53;21.83;;;13.68;;
21833;SDS011;11079;51.092;3.458;2023-11-22T14:34:19;22.63;;;14.00;;
21833;SDS011;11079;51.092;3.458;2023-11-22T14:36:46;25.70;;;14.82;;
21833;SDS011;11079;51.092;3.458;2023-11-22T14:39:12;22.27;;;13.82;;
21833;SDS011;11079;51.092;3.458;2023-11-22T14:41:39;24.50;;;15.38;;
21833;SDS011;11079;51.092;3.458;2023-11-22T14:44:39;23.60;;;14.63;;
21833;SDS011;11079;51.092;3.458;2023-11-22T14:47:37;25.13;;;15.80;;
21833;SDS011;11079;51.092;3.458;2023-11-22T14:50:14;23.92;;;15.35;;
21833;SDS011;11079;51.092;3.458;2023-11-22T14:52:41;24.00;;;15.57;;
21833;SDS011;11079;51.092;3.458;2023-11-22T14:55:10;26.20;;;16.40;;
21833;SDS011;11079;51.092;3.458;2023-11-22T14:57:50;27.75;;;15.95;;
21833;SDS011;11079;51.092;3.458;2023-11-22T15:00:37;25.33;;;15.73;;
21833;SDS011;11079;51.092;3.458;2023-11-22T15:03:36;28.15;;;16.20;;
21833;SDS011;11079;51.092;3.458;2023-11-22T15:09:21;25.40;;;15.57;;
21833;SDS011;11079;51.092;3.458;2023-11-22T15:11:53;25.88;;;16.38;;
21833;SDS011;11079;51.092;3.458;2023-11-22T15:14:51;27.02;;;15.88;;
21833;SDS011;11079;51.092;3.458;2023-11-22T15:17:45;28.15;;;16.30;;
21833;SDS011;11079;51.092;3.458;2023-11-22T15:20:42;25.17;;;14.70;;
21833;SDS011;11079;51.092;3.458;2023-11-22T15:23:13;23.23;;;14.90;;
21833;SDS011;11079;51.092;3.458;2023-11-22T15:25:39;25.48;;;15.85;;
21833;SDS011;11079;51.092;3.458;2023-11-22T15:28:09;27.27;;;16.15;;
21833;SDS011;11079;51.092;3.458;2023-11-22T15:30:38;24.90;;;14.77;;
21833;SDS011;11079;51.092;3.458;2023-11-22T15:33:03;25.17;;;15.23;;
21833;SDS011;11079;51.092;3.458;2023-11-22T15:35:30;23.48;;;14.00;;
21833;SDS011;11079;51.092;3.458;2023-11-22T15:37:55;23.67;;;14.57;;
21833;SDS011;11079;51.092;3.458;2023-11-22T15:40:21;24.58;;;14.15;;
21833;SDS011;11079;51.092;3.458;2023-11-22T15:42:47;24.17;;;14.93;;
21833;SDS011;11079;51.092;3.458;2023-11-22T15:45:14;26.20;;;15.07;;
21833;SDS011;11079;51.092;3.458;2023-11-22T15:47:40;25.15;;;15.35;;
21833;SDS011;11079;51.092;3.458;2023-11-22T15:50:06;26.30;;;15.50;;
21833;SDS011;11079;51.092;3.458;2023-11-22T15:52:32;22.08;;;13.65;;
21833;SDS011;11079;51.092;3.458;2023-11-22T15:54:58;22.85;;;13.45;;
21833;SDS011;11079;51.092;3.458;2023-11-22T15:57:26;23.48;;;14.73;;
21833;SDS011;11079;51.092;3.458;2023-11-22T15:59:54;24.40;;;14.15;;
21833;SDS011;11079;51.092;3.458;2023-11-22T16:02:31;24.55;;;15.27;;
21833;SDS011;11079;51.092;3.458;2023-11-22T16:05:09;28.58;;;16.10;;
21833;SDS011;11079;51.092;3.458;2023-11-22T16:08:10;26.42;;;15.50;;
21833;SDS011;11079;51.092;3.458;2023-11-22T16:10:50;32.45;;;15.63;;
21833;SDS011;11079;51.092;3.458;2023-11-22T16:13:33;25.77;;;14.70;;
21833;SDS011;11079;51.092;3.458;2023-11-22T16:16:42;27.75;;;16.08;;
21833;SDS011;11079;51.092;3.458;2023-11-22T16:19:09;27.73;;;16.13;;
21833;SDS011;11079;51.092;3.458;2023-11-22T16:21:40;26.23;;;16.13;;
21833;SDS011;11079;51.092;3.458;2023-11-22T16:24:22;32.47;;;20.95;;
21833;SDS011;11079;51.092;3.458;2023-11-22T16:27:01;24.88;;;16.92;;
21833;SDS011;11079;51.092;3.458;2023-11-22T16:33:13;26.67;;;16.48;;
21833;SDS011;11079;51.092;3.458;2023-11-22T16:35:46;27.27;;;16.33;;
21833;SDS011;11079;51.092;3.458;2023-11-22T16:39:01;26.73;;;15.70;;
21833;SDS011;11079;51.092;3.458;2023-11-22T16:44:31;26.90;;;15.35;;
21833;SDS011;11079;51.092;3.458;2023-11-22T16:47:24;26.17;;;16.13;;
21833;SDS011;11079;51.092;3.458;2023-11-22T16:50:14;29.90;;;15.85;;
21833;SDS011;11079;51.092;3.458;2023-11-22T16:55:57;26.52;;;15.55;;
21833;SDS011;11079;51.092;3.458;2023-11-22T16:58:21;26.85;;;16.25;;
21833;SDS011;11079;51.092;3.458;2023-11-22T17:00:49;29.45;;;17.13;;
21833;SDS011;11079;51.092;3.458;2023-11-22T17:03:28;28.77;;;15.40;;
21833;SDS011;11079;51.092;3.458;2023-11-22T17:05:57;26.30;;;16.20;;
21833;SDS011;11079;51.092;3.458;2023-11-22T17:08:33;24.98;;;15.93;;
21833;SDS011;11079;51.092;3.458;2023-11-22T17:11:20;22.60;;;14.40;;
21833;SDS011;11079;51.092;3.458;2023-11-22T17:14:12;21.88;;;13.73;;
21833;SDS011;11079;51.092;3.458;2023-11-22T17:16:45;21.70;;;14.00;;
21833;SDS011;11079;51.092;3.458;2023-11-22T17:19:16;25.65;;;15.02;;
21833;SDS011;11079;51.092;3.458;2023-11-22T17:21:45;25.35;;;15.00;;
21833;SDS011;11079;51.092;3.458;2023-11-22T17:24:11;25.23;;;14.32;;
21833;SDS011;11079;51.092;3.458;2023-11-22T17:26:42;22.85;;;14.60;;
21833;SDS011;11079;51.092;3.458;2023-11-22T17:29:17;22.08;;;14.10;;
21833;SDS011;11079;51.092;3.458;2023-11-22T17:31:52;24.05;;;15.23;;
21833;SDS011;11079;51.092;3.458;2023-11-22T17:34:42;22.52;;;14.43;;
21833;SDS011;11079;51.092;3.458;2023-11-22T17:37:21;24.13;;;14.50;;
21833;SDS011;11079;51.092;3.458;2023-11-22T17:39:52;22.17;;;13.02;;
21833;SDS011;11079;51.092;3.458;2023-11-22T17:42:24;22.42;;;14.00;;
21833;SDS011;11079;51.092;3.458;2023-11-22T17:45:04;21.58;;;13.35;;
21833;SDS011;11079;51.092;3.458;2023-11-22T17:51:09;21.95;;;13.35;;
21833;SDS011;11079;51.092;3.458;2023-11-22T18:00:47;24.33;;;13.00;;
21833;SDS011;11079;51.092;3.458;2023-11-22T18:03:16;22.85;;;12.02;;
21833;SDS011;11079;51.092;3.458;2023-11-22T18:05:47;18.95;;;11.13;;
21833;SDS011;11079;51.092;3.458;2023-11-22T18:08:17;18.80;;;11.00;;
21833;SDS011;11079;51.092;3.458;2023-11-22T18:11:00;17.30;;;10.88;;
21833;SDS011;11079;51.092;3.458;2023-11-22T18:16:24;16.90;;;10.25;;
21833;SDS011;11079;51.092;3.458;2023-11-22T18:18:52;17.17;;;10.27;;
21833;SDS011;11079;51.092;3.458;2023-11-22T18:21:23;15.32;;;10.85;;
21833;SDS011;11079;51.092;3.458;2023-11-22T18:23:48;15.60;;;10.35;;
21833;SDS011;11079;51.092;3.458;2023-11-22T18:26:15;16.95;;;11.25;;
21833;SDS011;11079;51.092;3.458;2023-11-22T18:28:43;16.80;;;10.60;;
21833;SDS011;11079;51.092;3.458;2023-11-22T18:31:20;15.73;;;11.63;;
21833;SDS011;11079;51.092;3.458;2023-11-22T18:33:50;18.58;;;11.30;;
21833;SDS011;11079;51.092;3.458;2023-11-22T18:36:24;21.38;;;11.15;;
21833;SDS011;11079;51.092;3.458;2023-11-22T18:38:56;17.25;;;10.20;;
21833;SDS011;11079;51.092;3.458;2023-11-22T18:41:27;15.27;;;9.95;;
21833;SDS011;11079;51.092;3.458;2023-11-22T18:44:04;16.45;;;10.35;;
21833;SDS011;11079;51.092;3.458;2023-11-22T18:46:42;17.23;;;11.55;;
21833;SDS011;11079;51.092;3.458;2023-11-22T18:49:45;17.63;;;10.27;;
21833;SDS011;11079;51.092;3.458;2023-11-22T18:52:14;18.23;;;11.90;;
21833;SDS011;11079;51.092;3.458;2023-11-22T18:54:45;18.20;;;11.25;;
21833;SDS011;11079;51.092;3.458;2023-11-22T19:03:18;19.52;;;11.07;;
21833;SDS011;11079;51.092;3.458;2023-11-22T19:13:26;18.55;;;10.85;;
21833;SDS011;11079;51.092;3.458;2023-11-22T19:15:56;20.13;;;11.68;;
21833;SDS011;11079;51.092;3.458;2023-11-22T19:21:47;22.33;;;13.32;;
21833;SDS011;11079;51.092;3.458;2023-11-22T19:24:29;18.98;;;11.60;;
21833;SDS011;11079;51.092;3.458;2023-11-22T19:26:57;18.00;;;11.57;;
21833;SDS011;11079;51.092;3.458;2023-11-22T19:29:36;16.73;;;11.23;;
21833;SDS011;11079;51.092;3.458;2023-11-22T19:32:45;21.23;;;11.68;;
21833;SDS011;11079;51.092;3.458;2023-11-22T19:35:10;18.02;;;11.77;;
21833;SDS011;11079;51.092;3.458;2023-11-22T19:37:36;19.23;;;11.52;;
21833;SDS011;11079;51.092;3.458;2023-11-22T19:44:19;18.35;;;10.77;;
21833;SDS011;11079;51.092;3.458;2023-11-22T19:50:11;20.08;;;12.40;;
21833;SDS011;11079;51.092;3.458;2023-11-22T19:52:49;18.23;;;12.25;;
21833;SDS011;11079;51.092;3.458;2023-11-22T19:56:06;17.25;;;11.38;;
21833;SDS011;11079;51.092;3.458;2023-11-22T19:58:34;20.00;;;11.68;;
21833;SDS011;11079;51.092;3.458;2023-11-22T20:01:00;18.63;;;11.77;;
21833;SDS011;11079;51.092;3.458;2023-11-22T20:03:26;21.92;;;11.50;;
21833;SDS011;11079;51.092;3.458;2023-11-22T20:05:52;22.35;;;12.20;;
21833;SDS011;11079;51.092;3.458;2023-11-22T20:08:18;17.38;;;12.00;;
21833;SDS011;11079;51.092;3.458;2023-11-22T20:10:45;16.30;;;10.75;;
21833;SDS011;11079;51.092;3.458;2023-11-22T20:13:19;21.58;;;11.10;;
21833;SDS011;11079;51.092;3.458;2023-11-22T20:15:49;17.67;;;11.43;;
21833;SDS011;11079;51.092;3.458;2023-11-22T20:18:19;19.63;;;11.60;;